Time;durP1;ratioP1;P1;durP2;ratioP2;P2;SDS_P1;SDS_P2;PMS_P1;PMS_P2;Temp;Humidity;BMP_temperature;BMP_pressure;BME280_temperature;BME280_humidity;BME280_pressure;Samples;Min_cycle;Max_cycle;Signal;HPM_P1;HPM_P2
2023/05/06 00:01:22;;;;;;;11.35;9.63;;;14.20;99.90;;;;;;4958071;28;93221;-76
2023/05/06 00:03:50;;;;;;;10.38;9.32;;;14.20;99.90;;;;;;4958320;28;94332;-76
2023/05/06 00:06:17;;;;;;;10.63;9.52;;;14.20;99.90;;;;;;4973977;28;94868;-76
2023/05/06 00:08:44;;;;;;;10.15;9.20;;;14.20;99.90;;;;;;4975982;28;92450;-76
2023/05/06 00:11:12;;;;;;;11.70;8.82;;;14.20;99.90;;;;;;4958246;28;94745;-76
2023/05/06 00:13:40;;;;;;;9.88;8.88;;;14.20;99.90;;;;;;4957865;28;94663;-76
2023/05/06 00:16:07;;;;;;;10.13;9.18;;;14.30;99.90;;;;;;4975850;28;92462;-76
2023/05/06 00:18:34;;;;;;;11.82;9.10;;;14.30;99.90;;;;;;4973900;28;92509;-76
2023/05/06 00:21:01;;;;;;;10.23;8.88;;;14.30;99.90;;;;;;4974312;28;94320;-76
2023/05/06 00:23:28;;;;;;;11.13;9.77;;;14.30;99.90;;;;;;4974415;28;95711;-76
2023/05/06 00:25:55;;;;;;;10.57;9.35;;;14.30;99.90;;;;;;4958240;28;92522;-76
2023/05/06 00:28:22;;;;;;;10.00;9.00;;;14.30;99.90;;;;;;4974951;28;97863;-76
2023/05/06 00:30:49;;;;;;;10.48;9.40;;;14.30;99.90;;;;;;4972984;28;97755;-76
2023/05/06 00:33:16;;;;;;;10.48;9.45;;;14.30;99.90;;;;;;4975441;28;95085;-76
2023/05/06 00:35:43;;;;;;;11.25;9.90;;;14.20;99.90;;;;;;4975570;28;92359;-76
2023/05/06 00:38:12;;;;;;;15.13;10.30;;;14.20;99.90;;;;;;4974427;28;92419;-76
2023/05/06 00:40:41;;;;;;;12.57;9.98;;;14.10;99.90;;;;;;4989537;28;93874;-76
2023/05/06 00:43:08;;;;;;;12.40;10.52;;;14.00;99.90;;;;;;4973419;28;95622;-76
2023/05/06 00:45:36;;;;;;;11.10;9.75;;;13.90;99.90;;;;;;4957029;28;92418;-76
2023/05/06 00:48:04;;;;;;;13.48;9.98;;;13.90;99.90;;;;;;4975731;28;91746;-76
2023/05/06 00:50:33;;;;;;;11.25;10.05;;;13.80;99.90;;;;;;4974447;28;93365;-76
2023/05/06 00:53:02;;;;;;;11.38;9.52;;;13.70;99.90;;;;;;4956986;28;95551;-76
2023/05/06 00:55:30;;;;;;;11.95;9.88;;;13.60;99.90;;;;;;4972324;28;94875;-76
2023/05/06 00:57:57;;;;;;;13.48;10.27;;;13.50;99.90;;;;;;4957278;28;100675;-76
2023/05/06 01:00:24;;;;;;;11.90;10.70;;;13.40;99.90;;;;;;4973160;28;95897;-76
2023/05/06 01:02:51;;;;;;;12.73;10.32;;;13.30;99.90;;;;;;4974521;28;93073;-76
2023/05/06 01:05:21;;;;;;;10.45;9.40;;;13.30;99.90;;;;;;4973577;28;92451;-76
2023/05/06 01:08:11;;;;;;;12.07;10.15;;;13.20;99.90;;;;;;4973370;28;92539;-76
2023/05/06 01:10:45;;;;;;;13.23;10.82;;;13.20;99.90;;;;;;4972857;28;96286;-76
2023/05/06 01:13:27;;;;;;;12.23;10.98;;;13.00;99.90;;;;;;4990049;28;95368;-76
2023/05/06 01:15:57;;;;;;;16.27;12.20;;;13.00;99.90;;;;;;4989691;28;92470;-76
2023/05/06 01:18:26;;;;;;;13.52;10.65;;;12.90;99.90;;;;;;4974218;28;92594;-76
2023/05/06 01:20:55;;;;;;;13.30;11.88;;;12.90;99.90;;;;;;4959159;28;95764;-76
2023/05/06 01:23:22;;;;;;;13.43;11.63;;;12.80;99.90;;;;;;4959642;28;98029;-76
2023/05/06 01:25:50;;;;;;;14.57;11.73;;;12.80;99.90;;;;;;4976000;28;92505;-76
2023/05/06 01:28:17;;;;;;;17.42;13.73;;;12.70;99.90;;;;;;4977899;28;92827;-76
2023/05/06 01:31:11;;;;;;;15.75;12.88;;;12.70;99.90;;;;;;4975898;28;95973;-76
2023/05/06 01:33:43;;;;;;;15.35;12.35;;;12.70;99.90;;;;;;4976027;28;95556;-76
2023/05/06 01:36:25;;;;;;;17.15;12.73;;;12.60;99.90;;;;;;4993276;28;92507;-76
2023/05/06 01:39:15;;;;;;;15.48;13.05;;;12.50;99.90;;;;;;4977900;28;91689;-76
2023/05/06 01:41:43;;;;;;;15.20;13.10;;;12.50;99.90;;;;;;4975717;28;95989;-76
2023/05/06 01:44:10;;;;;;;16.80;12.75;;;12.50;99.90;;;;;;4992641;28;95562;-76
2023/05/06 01:46:37;;;;;;;14.13;11.73;;;12.40;99.90;;;;;;4991508;28;95220;-76
2023/05/06 01:49:06;;;;;;;13.07;10.98;;;12.40;99.90;;;;;;4992526;28;92485;-76
2023/05/06 01:51:34;;;;;;;14.27;10.85;;;12.40;99.90;;;;;;4975505;28;96186;-76
2023/05/06 01:54:01;;;;;;;10.75;9.70;;;12.30;99.90;;;;;;4977181;28;93037;-76
2023/05/06 01:56:31;;;;;;;14.80;10.77;;;12.20;99.90;;;;;;4976572;28;93206;-76
2023/05/06 01:58:58;;;;;;;12.27;11.02;;;12.20;99.90;;;;;;4992469;28;92417;-76
2023/05/06 02:01:25;;;;;;;15.07;11.57;;;12.20;99.90;;;;;;4975571;28;95841;-76
2023/05/06 02:03:53;;;;;;;15.40;11.45;;;12.20;99.90;;;;;;4976136;28;93400;-76
2023/05/06 02:06:20;;;;;;;14.07;11.85;;;12.10;99.90;;;;;;4959449;28;92526;-76
2023/05/06 02:08:48;;;;;;;14.15;12.65;;;12.10;99.90;;;;;;4976919;28;92409;-76
2023/05/06 02:11:18;;;;;;;18.02;14.90;;;12.10;99.90;;;;;;4990997;28;98093;-76
2023/05/06 02:13:48;;;;;;;16.85;14.52;;;12.10;99.90;;;;;;4975304;28;97850;-76
2023/05/06 02:16:15;;;;;;;19.05;15.05;;;12.20;99.90;;;;;;4975445;28;92464;-76
2023/05/06 02:18:42;;;;;;;20.50;15.20;;;12.20;99.90;;;;;;4958632;28;93206;-76
2023/05/06 02:21:10;;;;;;;19.27;14.93;;;12.20;99.90;;;;;;4959357;28;95535;-76
2023/05/06 02:23:37;;;;;;;18.73;15.23;;;12.20;99.90;;;;;;4959331;28;93404;-76
2023/05/06 02:26:04;;;;;;;23.23;16.63;;;12.20;99.90;;;;;;4975613;28;92400;-76
2023/05/06 02:28:32;;;;;;;19.75;15.63;;;12.10;99.90;;;;;;4975485;28;91763;-76
2023/05/06 02:30:59;;;;;;;19.80;16.60;;;12.10;99.90;;;;;;4975182;28;96518;-76
2023/05/06 02:33:26;;;;;;;22.45;17.33;;;12.10;99.90;;;;;;4974878;28;95952;-76
2023/05/06 02:35:53;;;;;;;25.33;18.73;;;12.10;99.90;;;;;;4975506;28;95158;-76
2023/05/06 02:38:20;;;;;;;23.02;16.80;;;12.10;99.90;;;;;;4959354;28;94737;-76
2023/05/06 02:40:47;;;;;;;23.33;17.73;;;12.00;99.90;;;;;;4974746;28;95971;-76
2023/05/06 02:43:14;;;;;;;21.60;18.10;;;12.00;99.90;;;;;;4976306;28;93360;-76
2023/05/06 02:45:41;;;;;;;25.40;18.42;;;11.90;99.90;;;;;;4958813;28;92482;-76
2023/05/06 02:48:08;;;;;;;20.95;17.33;;;11.90;99.90;;;;;;4976591;28;92418;-76
2023/05/06 02:50:35;;;;;;;26.33;18.67;;;11.90;99.90;;;;;;4976194;28;93222;-76
2023/05/06 02:53:02;;;;;;;25.73;19.92;;;11.90;99.90;;;;;;4991748;28;95817;-76
2023/05/06 02:55:29;;;;;;;25.48;19.75;;;11.80;99.90;;;;;;4975284;28;92524;-76
2023/05/06 02:57:56;;;;;;;21.63;18.10;;;11.80;99.90;;;;;;4991279;28;92403;-76
2023/05/06 03:00:23;;;;;;;24.23;18.90;;;11.80;99.90;;;;;;4973341;28;98156;-76
2023/05/06 03:02:50;;;;;;;27.33;19.75;;;11.80;99.90;;;;;;4975719;28;95401;-76
2023/05/06 03:05:17;;;;;;;26.08;20.67;;;11.70;99.90;;;;;;4975056;28;92463;-76
2023/05/06 03:07:45;;;;;;;29.30;21.13;;;11.70;99.90;;;;;;4958110;28;98698;-76
2023/05/06 03:10:12;;;;;;;26.20;21.33;;;11.70;99.90;;;;;;4958632;28;95758;-76
2023/05/06 03:12:39;;;;;;;24.30;20.17;;;11.60;99.90;;;;;;4974792;28;95186;-76
2023/05/06 03:15:06;;;;;;;29.65;21.13;;;11.70;99.90;;;;;;4942004;28;92580;-76
2023/05/06 03:17:36;;;;;;;28.33;20.58;;;11.60;99.90;;;;;;4958595;28;91890;-76
2023/05/06 03:20:07;;;;;;;28.02;21.45;;;11.60;99.90;;;;;;4990855;28;95757;-76
2023/05/06 03:22:35;;;;;;;27.17;20.05;;;11.60;99.90;;;;;;4958628;28;95650;-76
2023/05/06 03:25:02;;;;;;;27.48;19.38;;;11.50;99.90;;;;;;4957107;28;95309;-76
2023/05/06 03:27:31;;;;;;;29.27;20.88;;;11.50;99.90;;;;;;4974417;28;92563;-76
2023/05/06 03:30:03;;;;;;;27.90;20.75;;;11.50;99.90;;;;;;4974056;28;95673;-76
2023/05/06 03:32:30;;;;;;;32.85;21.15;;;11.50;99.90;;;;;;4974440;28;93186;-76
2023/05/06 03:34:58;;;;;;;20.92;17.58;;;11.40;99.90;;;;;;4958162;28;92507;-76
2023/05/06 03:37:25;;;;;;;25.08;19.05;;;11.40;99.90;;;;;;4974421;28;92521;-76
2023/05/06 03:39:55;;;;;;;23.77;17.70;;;11.30;99.90;;;;;;4957649;28;96216;-76
2023/05/06 03:42:25;;;;;;;21.98;18.08;;;11.30;99.90;;;;;;4974204;28;95311;-76
2023/05/06 03:44:52;;;;;;;23.73;17.73;;;11.30;99.90;;;;;;4974305;28;92531;-76
2023/05/06 03:47:20;;;;;;;25.00;19.33;;;11.30;99.90;;;;;;4958121;28;92439;-76
2023/05/06 03:49:47;;;;;;;26.83;20.17;;;11.20;99.90;;;;;;4972858;28;97830;-76
2023/05/06 03:52:14;;;;;;;32.63;21.77;;;11.20;99.90;;;;;;4957496;28;97875;-76
2023/05/06 03:54:41;;;;;;;22.98;17.95;;;11.20;99.90;;;;;;4974318;28;92980;-76
2023/05/06 03:57:08;;;;;;;25.38;18.77;;;11.20;99.90;;;;;;4975557;28;92389;-76
2023/05/06 03:59:35;;;;;;;34.00;20.60;;;11.20;99.90;;;;;;4957829;28;95806;-76
2023/05/06 04:02:04;;;;;;;25.65;21.15;;;11.10;99.90;;;;;;4957686;28;95388;-76
2023/05/06 04:04:34;;;;;;;38.97;21.92;;;11.10;99.90;;;;;;4973967;28;92443;-76
2023/05/06 04:07:02;;;;;;;116.13;27.38;;;11.20;99.90;;;;;;4974371;28;91805;-76
2023/05/06 04:09:31;;;;;;;130.25;26.45;;;11.20;99.90;;;;;;4957759;28;97134;-76
2023/05/06 04:12:02;;;;;;;222.73;35.33;;;11.30;99.90;;;;;;4973638;28;95321;-76
2023/05/06 04:14:30;;;;;;;210.88;31.60;;;11.30;99.90;;;;;;4972787;28;95881;-76
2023/05/06 04:16:57;;;;;;;178.90;31.00;;;11.40;99.90;;;;;;4973770;28;92573;-76
2023/05/06 04:19:25;;;;;;;227.38;39.70;;;11.40;99.90;;;;;;4957394;28;95347;-76
2023/05/06 04:21:52;;;;;;;164.30;34.63;;;11.40;99.90;;;;;;4957588;28;94998;-76
2023/05/06 04:24:20;;;;;;;179.70;33.35;;;11.40;99.90;;;;;;4973469;28;92523;-76
2023/05/06 04:26:47;;;;;;;189.27;35.45;;;11.50;99.90;;;;;;4957739;28;92487;-76
2023/05/06 04:29:14;;;;;;;197.02;36.75;;;11.50;99.90;;;;;;4973352;28;95507;-76
2023/05/06 04:31:54;;;;;;;144.85;31.40;;;11.60;99.90;;;;;;4973748;28;95757;-76
2023/05/06 04:34:23;;;;;;;123.20;29.52;;;11.60;99.90;;;;;;4973722;28;92502;-76
2023/05/06 04:36:53;;;;;;;283.35;42.35;;;11.70;99.90;;;;;;4973560;28;92530;-76
2023/05/06 04:39:35;;;;;;;107.82;30.27;;;11.70;99.90;;;;;;4988639;28;98084;-76
2023/05/06 04:42:02;;;;;;;167.77;39.47;;;11.80;99.90;;;;;;4974605;28;95581;-76
2023/05/06 04:44:37;;;;;;;102.80;33.63;;;11.80;99.90;;;;;;4958236;28;92549;-76
2023/05/06 04:47:07;;;;;;;62.88;24.35;;;11.90;99.90;;;;;;4957577;28;92392;-76
2023/05/06 04:49:34;;;;;;;66.82;24.95;;;12.00;99.90;;;;;;4989759;28;94212;-76
2023/05/06 04:52:03;;;;;;;42.22;22.27;;;12.10;99.90;;;;;;4974422;28;93926;-76
2023/05/06 04:54:31;;;;;;;45.75;21.35;;;12.20;99.90;;;;;;4960941;28;92518;-76
2023/05/06 04:56:58;;;;;;;40.25;20.98;;;12.40;99.90;;;;;;4960933;28;91852;-76
2023/05/06 04:59:25;;;;;;;42.72;20.92;;;12.50;99.90;;;;;;4976469;28;95080;-76
2023/05/06 05:01:53;;;;;;;32.03;20.17;;;12.70;99.90;;;;;;4993350;28;95310;-76
2023/05/06 05:04:19;;;;;;;30.42;17.80;;;12.90;99.90;;;;;;4976858;28;94909;-76
2023/05/06 05:06:46;;;;;;;18.02;15.38;;;13.10;99.90;;;;;;4993367;28;92549;-76
2023/05/06 05:09:14;;;;;;;17.48;14.48;;;13.30;99.90;;;;;;4960063;28;95723;-76
2023/05/06 05:11:43;;;;;;;15.73;14.07;;;13.60;99.90;;;;;;4960415;28;95550;-76
2023/05/06 05:14:10;;;;;;;13.93;12.35;;;13.90;99.90;;;;;;4976257;28;92643;-76
2023/05/06 05:16:37;;;;;;;12.23;11.15;;;14.30;99.90;;;;;;4960498;28;93069;-76
2023/05/06 05:19:05;;;;;;;11.45;10.55;;;14.60;99.90;;;;;;4959651;28;95618;-76
2023/05/06 05:21:34;;;;;;;11.38;10.48;;;15.00;99.90;;;;;;4960981;28;95884;-76
2023/05/06 05:24:03;;;;;;;10.60;9.60;;;15.20;99.90;;;;;;4976349;28;92441;-76
2023/05/06 05:26:30;;;;;;;9.88;9.07;;;15.40;99.90;;;;;;4961003;28;92907;-76
2023/05/06 05:28:59;;;;;;;9.23;8.50;;;15.50;99.90;;;;;;4975574;28;97969;-76
2023/05/06 05:31:27;;;;;;;9.70;8.90;;;15.90;99.90;;;;;;4960372;28;97386;-76
2023/05/06 05:33:54;;;;;;;8.45;7.75;;;16.30;99.90;;;;;;4960646;28;92439;-76
2023/05/06 05:36:22;;;;;;;9.48;8.68;;;16.80;99.90;;;;;;4960401;28;92510;-76
2023/05/06 05:38:52;;;;;;;10.02;9.23;;;17.00;99.90;;;;;;4976970;28;95062;-77
2023/05/06 05:41:21;;;;;;;10.95;10.05;;;17.00;99.90;;;;;;4976860;28;95476;-77
2023/05/06 05:43:48;;;;;;;9.30;8.48;;;17.00;99.90;;;;;;4992829;28;92673;-77
2023/05/06 05:46:15;;;;;;;10.27;9.35;;;17.00;99.90;;;;;;4978121;28;91760;-77
2023/05/06 05:48:45;;;;;;;11.32;10.32;;;16.90;99.90;;;;;;4944385;28;95355;-77
2023/05/06 05:51:13;;;;;;;12.55;11.35;;;16.90;99.90;;;;;;4975453;28;95672;-77
2023/05/06 05:53:40;;;;;;;10.55;9.48;;;16.80;99.90;;;;;;4991412;28;94912;-77
2023/05/06 05:56:08;;;;;;;11.93;10.82;;;16.70;99.90;;;;;;4993194;28;92560;-77
2023/05/06 05:58:36;;;;;;;11.45;10.35;;;16.70;99.90;;;;;;4975730;28;95139;-77
2023/05/06 06:01:03;;;;;;;12.27;10.43;;;16.60;99.90;;;;;;4959440;28;94750;-76
2023/05/06 06:03:31;;;;;;;11.75;10.55;;;16.60;99.90;;;;;;4974795;28;92462;-77
2023/05/06 06:05:58;;;;;;;11.43;10.32;;;16.60;99.90;;;;;;4977229;28;92462;-77
2023/05/06 06:08:28;;;;;;;12.15;10.90;;;16.60;99.90;;;;;;4959412;28;95315;-77
2023/05/06 06:10:56;;;;;;;11.80;10.73;;;16.60;99.90;;;;;;4960089;28;95435;-77
2023/05/06 06:13:30;;;;;;;11.85;10.75;;;16.60;99.90;;;;;;4960215;28;92997;-77
2023/05/06 06:15:58;;;;;;;13.85;12.50;;;16.60;99.90;;;;;;4992186;28;92481;-77
2023/05/06 06:18:25;;;;;;;13.43;12.02;;;16.70;99.90;;;;;;4989577;28;98449;-77
2023/05/06 06:20:52;;;;;;;13.60;12.30;;;16.70;99.90;;;;;;4959364;28;97648;-77
2023/05/06 06:23:20;;;;;;;12.63;11.43;;;16.70;99.90;;;;;;4959198;28;92548;-77
2023/05/06 06:25:47;;;;;;;14.27;12.88;;;16.70;99.90;;;;;;4975468;28;92536;-77
2023/05/06 06:28:14;;;;;;;15.38;13.88;;;16.70;99.90;;;;;;4959372;28;95871;-77
2023/05/06 06:30:43;;;;;;;13.23;11.80;;;16.70;99.90;;;;;;4975166;28;95479;-77
2023/05/06 06:33:10;;;;;;;14.38;12.98;;;16.60;99.90;;;;;;4975468;28;92508;-77
2023/05/06 06:35:38;;;;;;;14.80;12.75;;;16.60;99.90;;;;;;4975570;28;91794;-77
2023/05/06 06:38:05;;;;;;;14.23;12.82;;;16.50;99.90;;;;;;4976678;28;93205;-77
2023/05/06 06:40:32;;;;;;;15.10;13.40;;;16.50;99.90;;;;;;4974920;28;93088;-77
2023/05/06 06:43:00;;;;;;;14.93;13.27;;;16.50;99.90;;;;;;4975365;28;94969;-77
2023/05/06 06:45:47;;;;;;;14.15;12.75;;;16.60;99.90;;;;;;4961734;28;92534;-77
2023/05/06 06:48:14;;;;;;;14.07;12.70;;;16.60;99.90;;;;;;4974765;28;96604;-77
2023/05/06 06:50:41;;;;;;;13.85;12.55;;;16.70;99.90;;;;;;4976434;28;92993;-77
2023/05/06 06:53:09;;;;;;;14.63;13.25;;;16.90;99.90;;;;;;4991872;28;93101;-77
2023/05/06 06:55:36;;;;;;;14.05;12.60;;;17.10;99.90;;;;;;4976077;28;92569;-77
2023/05/06 06:58:03;;;;;;;13.02;11.82;;;17.50;99.90;;;;;;4958669;28;94154;-77
2023/05/06 07:00:30;;;;;;;14.07;12.68;;;17.90;99.90;;;;;;4976441;28;93235;-77
2023/05/06 07:02:57;;;;;;;16.25;14.35;;;18.30;99.90;;;;;;4975036;28;92593;-77
2023/05/06 07:05:25;;;;;;;14.77;13.23;;;18.70;99.90;;;;;;4976036;28;92468;-77
2023/05/06 07:07:53;;;;;;;15.73;14.10;;;19.10;99.90;;;;;;4973373;28;98089;-77
2023/05/06 07:10:20;;;;;;;15.70;14.10;;;19.40;99.90;;;;;;4958405;28;98511;-77
2023/05/06 07:12:47;;;;;;;15.40;13.82;;;19.50;99.90;;;;;;4974868;28;92471;-77
2023/05/06 07:15:14;;;;;;;15.38;13.93;;;19.60;99.90;;;;;;4975097;28;92444;-77
2023/05/06 07:17:42;;;;;;;16.17;14.57;;;19.50;99.90;;;;;;4975533;28;93346;-77
2023/05/06 07:20:10;;;;;;;16.25;14.60;;;19.60;99.90;;;;;;4976079;28;92954;-77
2023/05/06 07:22:37;;;;;;;15.45;13.82;;;19.50;99.90;;;;;;4975756;28;92405;-77
2023/05/06 07:25:05;;;;;;;15.65;14.07;;;19.50;99.90;;;;;;4958976;28;91745;-77
2023/05/06 07:27:32;;;;;;;15.68;14.10;;;19.70;99.90;;;;;;4957772;28;107229;-77
2023/05/06 07:29:59;;;;;;;16.08;14.35;;;19.80;99.90;;;;;;4974399;28;95586;-77
2023/05/06 07:32:26;;;;;;;17.05;14.75;;;19.90;99.90;;;;;;4973300;28;94847;-77
2023/05/06 07:34:54;;;;;;;15.20;13.65;;;19.90;99.90;;;;;;4974712;28;92513;-77
2023/05/06 07:37:20;;;;;;;16.08;14.38;;;20.00;99.90;;;;;;4975873;28;93133;-77
2023/05/06 07:39:47;;;;;;;15.30;13.80;;;20.00;99.90;;;;;;4974021;28;95637;-77
2023/05/06 07:42:14;;;;;;;15.73;14.00;;;19.90;99.90;;;;;;4974519;28;92426;-77
2023/05/06 07:44:41;;;;;;;15.80;14.20;;;20.00;99.90;;;;;;4973990;28;92529;-77
2023/05/06 07:47:08;;;;;;;15.45;13.95;;;20.00;99.90;;;;;;4974392;28;93241;-77
2023/05/06 07:49:36;;;;;;;18.13;14.70;;;20.00;99.90;;;;;;4974166;28;98950;-77
2023/05/06 07:52:03;;;;;;;16.25;14.65;;;19.90;99.90;;;;;;4974169;28;92433;-77
2023/05/06 07:54:30;;;;;;;16.60;14.90;;;20.00;99.90;;;;;;4975472;28;92426;-78
2023/05/06 07:56:57;;;;;;;14.60;13.23;;;20.00;99.90;;;;;;4972781;28;98349;-77
2023/05/06 07:59:24;;;;;;;15.63;14.02;;;20.50;99.90;;;;;;4975258;28;95827;-77
2023/05/06 08:01:51;;;;;;;14.95;13.48;;;21.20;99.90;;;;;;4974062;28;92517;-77
2023/05/06 08:04:19;;;;;;;17.10;15.32;;;21.70;99.90;;;;;;4975583;28;92950;-78
2023/05/06 08:06:45;;;;;;;16.08;14.48;;;21.90;99.90;;;;;;4974675;28;94145;-77
2023/05/06 08:09:12;;;;;;;15.73;13.50;;;21.90;99.90;;;;;;4975222;28;93000;-77
2023/05/06 08:11:48;;;;;;;14.98;13.55;;;22.00;99.90;;;;;;4958670;28;92510;-77
2023/05/06 08:14:15;;;;;;;15.18;13.73;;;21.90;99.90;;;;;;4974178;28;91741;-77
2023/05/06 08:16:42;;;;;;;15.85;14.35;;;22.00;99.90;;;;;;4973908;28;93575;-77
2023/05/06 08:19:09;;;;;;;16.70;14.95;;;22.00;99.90;;;;;;4972727;28;100511;-77
2023/05/06 08:21:36;;;;;;;15.85;14.07;;;22.00;99.90;;;;;;4973928;28;94853;-77
2023/05/06 08:24:03;;;;;;;16.90;15.20;;;21.80;99.90;;;;;;4973946;28;92447;-77
2023/05/06 08:26:30;;;;;;;17.95;16.17;;;21.60;99.90;;;;;;4974650;28;93303;-77
2023/05/06 08:28:58;;;;;;;15.60;14.00;;;21.20;99.90;;;;;;4989919;28;95697;-77
2023/05/06 08:31:25;;;;;;;14.27;12.82;;;21.20;99.90;;;;;;4973702;28;92451;-77
2023/05/06 08:33:52;;;;;;;14.07;12.68;;;21.30;99.90;;;;;;4973511;28;92531;-78
2023/05/06 08:36:21;;;;;;;14.25;12.63;;;21.50;99.90;;;;;;4974972;28;93299;-77
2023/05/06 08:38:49;;;;;;;13.73;12.32;;;21.50;99.90;;;;;;4975100;28;93069;-78
2023/05/06 08:41:18;;;;;;;12.00;10.90;;;21.70;99.90;;;;;;4990260;28;92439;-78
2023/05/06 08:43:47;;;;;;;10.10;9.20;;;22.00;99.90;;;;;;4973374;28;92541;-78
2023/05/06 08:46:14;;;;;;;10.32;9.43;;;22.60;99.30;;;;;;4973550;28;108546;-78
2023/05/06 08:48:42;;;;;;;10.32;9.32;;;23.10;98.60;;;;;;4973755;28;98211;-78
2023/05/06 08:51:12;;;;;;;10.63;9.45;;;23.60;97.70;;;;;;4974494;28;92435;-78
2023/05/06 08:53:45;;;;;;;10.27;9.38;;;24.00;97.40;;;;;;4974417;28;93159;-78
2023/05/06 08:56:13;;;;;;;11.68;10.68;;;24.20;97.20;;;;;;4975667;28;93173;-78
2023/05/06 08:58:44;;;;;;;11.80;10.80;;;24.30;96.90;;;;;;4956806;28;95694;-78
2023/05/06 09:01:12;;;;;;;13.82;12.60;;;24.20;96.80;;;;;;4973654;28;93038;-78
2023/05/06 09:03:39;;;;;;;13.18;11.88;;;24.10;96.90;;;;;;4973762;28;91739;-78
2023/05/06 09:06:06;;;;;;;14.73;11.43;;;23.60;96.90;;;;;;4974612;28;93344;-78
2023/05/06 09:08:33;;;;;;;12.88;11.68;;;23.30;97.10;;;;;;4957091;28;93109;-78
2023/05/06 09:11:00;;;;;;;12.40;11.23;;;22.90;97.30;;;;;;4971894;28;94951;-78
2023/05/06 09:13:27;;;;;;;13.25;11.88;;;22.60;97.60;;;;;;4957202;28;92535;-78
2023/05/06 09:15:54;;;;;;;11.98;10.88;;;22.30;97.70;;;;;;4956550;28;96452;-78
2023/05/06 09:18:22;;;;;;;11.18;10.05;;;22.10;98.10;;;;;;4956892;28;93018;-77
2023/05/06 09:20:49;;;;;;;10.57;9.40;;;22.00;98.30;;;;;;4974349;28;92454;-77
2023/05/06 09:23:17;;;;;;;10.88;9.57;;;21.90;97.90;;;;;;4974077;28;92442;-77
2023/05/06 09:25:45;;;;;;;14.90;11.13;;;21.80;98.40;;;;;;4974708;28;92877;-77
2023/05/06 09:28:13;;;;;;;9.90;8.57;;;21.80;98.40;;;;;;4957213;28;93444;-77
2023/05/06 09:30:42;;;;;;;11.73;10.23;;;21.50;98.20;;;;;;4974976;28;92437;-77
2023/05/06 09:33:11;;;;;;;11.88;10.57;;;21.40;98.40;;;;;;4973063;28;92982;-77
2023/05/06 09:35:40;;;;;;;11.93;10.40;;;21.30;98.40;;;;;;4972911;28;96107;-77
2023/05/06 09:38:09;;;;;;;11.77;10.68;;;21.30;98.60;;;;;;4972456;28;98184;-78
2023/05/06 09:40:37;;;;;;;11.65;10.27;;;21.40;98.90;;;;;;4977489;28;92359;-77
2023/05/06 09:43:04;;;;;;;11.07;10.02;;;21.50;98.90;;;;;;4976265;28;92571;-78
2023/05/06 09:45:32;;;;;;;11.68;10.48;;;21.50;98.10;;;;;;4976090;28;93343;-77
2023/05/06 09:48:07;;;;;;;10.57;9.57;;;21.50;98.10;;;;;;4976253;28;92885;-77
2023/05/06 09:50:35;;;;;;;10.50;9.27;;;21.60;97.80;;;;;;4976584;28;92413;-77
2023/05/06 09:53:04;;;;;;;10.88;9.88;;;21.60;98.20;;;;;;4976790;28;92325;-77
2023/05/06 09:55:32;;;;;;;10.70;9.60;;;21.70;98.00;;;;;;4976383;28;96148;-77
2023/05/06 09:58:00;;;;;;;11.10;10.00;;;21.80;98.00;;;;;;4976413;28;93028;-77
2023/05/06 10:00:29;;;;;;;11.65;9.98;;;21.80;97.70;;;;;;4991397;28;94853;-77
2023/05/06 10:02:57;;;;;;;10.88;9.82;;;21.80;97.70;;;;;;4992330;28;92540;-77
2023/05/06 10:05:26;;;;;;;9.23;8.32;;;22.00;98.00;;;;;;4977150;28;93205;-77
2023/05/06 10:07:56;;;;;;;10.75;9.65;;;21.90;97.80;;;;;;4977108;28;93148;-77
2023/05/06 10:10:24;;;;;;;12.77;11.30;;;21.80;97.80;;;;;;4977907;28;93450;-77
2023/05/06 10:12:52;;;;;;;11.68;10.57;;;21.90;98.00;;;;;;4959104;28;94927;-77
2023/05/06 10:15:19;;;;;;;11.23;10.15;;;21.80;97.80;;;;;;4975707;28;96062;-77
2023/05/06 10:17:49;;;;;;;10.80;9.75;;;21.90;97.80;;;;;;4976811;28;93630;-77
2023/05/06 10:20:16;;;;;;;11.00;9.85;;;21.90;97.70;;;;;;4976622;28;93175;-77
2023/05/06 10:23:08;;;;;;;10.85;9.75;;;21.90;97.90;;;;;;4975945;28;92488;-77
2023/05/06 10:25:37;;;;;;;11.57;10.48;;;21.90;97.80;;;;;;4974522;28;98351;-77
2023/05/06 10:28:07;;;;;;;10.70;9.60;;;21.90;97.80;;;;;;4991565;28;95407;-77
2023/05/06 10:30:36;;;;;;;10.65;9.55;;;21.80;98.10;;;;;;4976074;28;92453;-77
2023/05/06 10:33:08;;;;;;;11.15;9.93;;;22.00;97.20;;;;;;4975564;28;92622;-77
2023/05/06 10:35:41;;;;;;;11.27;8.93;;;22.30;96.90;;;;;;4975764;28;96129;-77
2023/05/06 10:38:35;;;;;;;10.85;9.75;;;22.60;96.50;;;;;;4975474;28;95333;-77
2023/05/06 10:41:02;;;;;;;11.63;9.85;;;23.00;95.70;;;;;;4976062;28;93012;-77
2023/05/06 10:43:34;;;;;;;10.32;8.75;;;23.10;94.40;;;;;;4976047;28;91708;-77
2023/05/06 10:46:03;;;;;;;9.93;8.90;;;23.40;94.50;;;;;;4976627;28;93078;-77
2023/05/06 10:48:31;;;;;;;11.40;10.20;;;23.40;94.20;;;;;;4976872;28;93051;-77
2023/05/06 10:51:16;;;;;;;12.88;10.68;;;23.50;94.20;;;;;;4990235;28;94879;-77
2023/05/06 10:54:01;;;;;;;13.18;11.02;;;23.40;93.10;;;;;;4991654;28;92561;-77
2023/05/06 10:56:36;;;;;;;14.43;12.63;;;23.50;93.40;;;;;;4975205;28;92497;-77
2023/05/06 10:59:10;;;;;;;13.75;11.10;;;23.60;92.90;;;;;;4974673;28;95856;-77
2023/05/06 11:01:39;;;;;;;12.63;11.27;;;23.70;93.00;;;;;;4976322;28;92392;-77
2023/05/06 11:04:08;;;;;;;13.43;9.95;;;23.90;92.40;;;;;;4974555;28;92529;-77
2023/05/06 11:06:41;;;;;;;10.63;9.52;;;23.90;93.00;;;;;;4975216;28;94135;-77
2023/05/06 11:09:18;;;;;;;12.07;10.85;;;24.20;92.80;;;;;;4975324;28;94767;-77
2023/05/06 11:11:49;;;;;;;13.95;11.52;;;24.50;92.30;;;;;;4974753;28;92457;-77
2023/05/06 11:14:30;;;;;;;13.75;11.75;;;24.60;92.10;;;;;;4974492;28;92501;-77
2023/05/06 11:16:58;;;;;;;11.98;10.48;;;24.70;91.50;;;;;;4973571;28;95556;-77
2023/05/06 11:19:30;;;;;;;11.93;10.73;;;24.50;91.70;;;;;;4974193;28;97189;-77
2023/05/06 11:21:59;;;;;;;10.90;9.90;;;24.50;91.70;;;;;;4991475;28;92480;-77
2023/05/06 11:24:26;;;;;;;10.75;9.32;;;24.60;91.60;;;;;;4974923;28;92523;-77
2023/05/06 11:26:57;;;;;;;11.68;10.57;;;24.70;91.40;;;;;;4976277;28;93256;-77
2023/05/06 11:29:25;;;;;;;13.13;10.60;;;24.80;91.00;;;;;;4974414;28;94183;-77
2023/05/06 11:31:53;;;;;;;11.93;10.27;;;24.80;90.90;;;;;;4976012;28;92960;-77
2023/05/06 11:34:28;;;;;;;13.20;11.90;;;24.80;91.10;;;;;;4975989;28;91711;-77
2023/05/06 11:37:04;;;;;;;14.35;12.98;;;24.60;91.00;;;;;;4974252;28;94311;-77
2023/05/06 11:39:34;;;;;;;12.93;11.63;;;24.40;91.20;;;;;;4975855;28;93129;-77
2023/05/06 11:42:07;;;;;;;10.77;9.68;;;24.10;91.80;;;;;;4974640;28;95242;-77
2023/05/06 11:44:38;;;;;;;12.32;10.20;;;24.10;91.60;;;;;;4974781;28;92510;-77
2023/05/06 11:47:07;;;;;;;10.38;9.38;;;24.10;91.40;;;;;;4975329;28;92467;-77
2023/05/06 11:49:42;;;;;;;10.40;8.88;;;24.30;90.90;;;;;;4974478;28;94703;-77
2023/05/06 11:52:10;;;;;;;11.50;8.93;;;24.50;91.50;;;;;;4976382;28;92877;-77
2023/05/06 11:54:39;;;;;;;10.70;9.75;;;24.50;91.10;;;;;;4974846;28;92612;-77
2023/05/06 11:57:06;;;;;;;9.45;8.55;;;24.50;90.70;;;;;;4975839;28;93332;-77
2023/05/06 11:59:36;;;;;;;9.52;8.57;;;24.50;90.90;;;;;;4976185;28;93002;-77
2023/05/06 12:02:06;;;;;;;11.13;10.02;;;24.60;90.70;;;;;;4973607;28;92532;-77
2023/05/06 12:04:41;;;;;;;11.05;10.05;;;24.60;90.80;;;;;;4973957;28;92677;-77
2023/05/06 12:07:10;;;;;;;12.20;11.10;;;24.70;90.60;;;;;;4974165;28;95685;-77
2023/05/06 12:09:41;;;;;;;11.77;10.65;;;24.60;90.50;;;;;;4975142;28;94279;-77
2023/05/06 12:12:09;;;;;;;10.77;9.88;;;24.50;90.50;;;;;;4975381;28;92705;-77
2023/05/06 12:14:37;;;;;;;12.27;10.38;;;24.20;90.80;;;;;;4974204;28;92600;-77
2023/05/06 12:17:04;;;;;;;12.95;11.73;;;23.90;90.90;;;;;;4973956;28;92470;-77
2023/05/06 12:19:32;;;;;;;12.93;11.25;;;23.70;91.10;;;;;;4989906;28;95839;-77
2023/05/06 12:22:23;;;;;;;12.65;11.40;;;23.60;91.50;;;;;;4990464;28;92522;-77
2023/05/06 12:24:51;;;;;;;13.52;12.13;;;23.60;91.30;;;;;;4975834;28;91760;-77
2023/05/06 12:27:34;;;;;;;10.93;9.93;;;23.40;91.30;;;;;;4974772;28;93022;-78
2023/05/06 12:30:03;;;;;;;12.23;11.00;;;23.50;91.30;;;;;;4975690;28;93179;-77
2023/05/06 12:32:30;;;;;;;11.07;9.13;;;23.50;91.50;;;;;;4973359;28;96013;-75
2023/05/06 12:34:59;;;;;;;12.43;11.23;;;23.60;91.60;;;;;;4975855;28;93087;-75
2023/05/06 12:37:29;;;;;;;12.93;11.73;;;23.90;91.30;;;;;;4957206;28;93311;-75